Time;durP1;ratioP1;P1;durP2;ratioP2;P2;SDS_P1;SDS_P2;PMS_P1;PMS_P2;Temp;Humidity;BMP_temperature;BMP_pressure;BME280_temperature;BME280_humidity;BME280_pressure;Samples;Min_cycle;Max_cycle;Signal;HPM_P1;HPM_P2
2022/05/24 18:19:52;;;;;;;1.38;0.20;;;16.90;88.80;;;;;;4987143;28;81755;-76
2022/05/24 18:22:24;;;;;;;2.40;0.22;;;16.50;90.50;;;;;;4989910;28;81566;-77
2022/05/24 18:25:02;;;;;;;1.95;0.30;;;16.50;90.70;;;;;;4993451;28;81345;-78
2022/05/24 18:33:16;;;;;;;0.85;0.20;;;16.40;90.50;;;;;;4993244;28;83486;-76
2022/05/24 18:35:51;;;;;;;2.75;0.40;;;16.50;91.20;;;;;;4989580;28;81257;-77
2022/05/24 18:38:17;;;;;;;0.65;0.20;;;16.50;91.40;;;;;;4995824;28;82211;-76
2022/05/24 18:40:42;;;;;;;1.77;0.20;;;16.50;92.10;;;;;;4990595;28;82455;-77
2022/05/24 18:43:08;;;;;;;0.90;0.28;;;16.40;90.20;;;;;;4989076;28;82325;-77
2022/05/24 18:45:37;;;;;;;1.02;0.10;;;16.30;91.30;;;;;;4992261;28;82076;-77
2022/05/24 18:48:06;;;;;;;1.73;0.20;;;16.30;90.90;;;;;;4990984;28;82324;-76
2022/05/24 18:50:32;;;;;;;1.65;0.20;;;16.30;91.10;;;;;;4999606;28;84558;-76
2022/05/24 18:52:58;;;;;;;2.05;0.20;;;16.30;91.40;;;;;;4992965;28;81208;-77
2022/05/24 18:55:23;;;;;;;1.00;0.30;;;16.40;91.20;;;;;;4992422;28;82842;-77
2022/05/24 18:57:50;;;;;;;1.00;0.10;;;16.40;91.50;;;;;;4993450;28;81978;-76
2022/05/24 19:00:17;;;;;;;1.20;0.20;;;16.20;89.30;;;;;;4989660;28;82257;-76
2022/05/24 19:02:43;;;;;;;1.33;0.30;;;16.10;88.00;;;;;;4990218;28;81332;-76
2022/05/24 19:05:09;;;;;;;2.92;0.50;;;16.00;90.50;;;;;;4993381;28;81230;-78
2022/05/24 19:07:35;;;;;;;1.40;0.20;;;15.90;91.50;;;;;;4995531;28;81858;-77
2022/05/24 19:10:02;;;;;;;1.60;0.20;;;15.90;92.10;;;;;;5001715;28;81695;-79
2022/05/24 19:12:28;;;;;;;2.80;0.22;;;16.00;92.40;;;;;;4991616;28;81752;-78
2022/05/24 19:14:54;;;;;;;4.30;0.35;;;16.00;93.10;;;;;;4987746;28;81849;-78
2022/05/24 19:17:23;;;;;;;2.00;0.20;;;16.00;93.90;;;;;;4994055;28;81974;-77
2022/05/24 19:19:49;;;;;;;1.10;0.20;;;15.90;93.70;;;;;;4985292;28;83231;-78
2022/05/24 19:22:16;;;;;;;2.55;0.30;;;15.90;94.30;;;;;;4992909;28;81603;-76
2022/05/24 19:24:43;;;;;;;4.95;0.22;;;15.90;93.60;;;;;;4996097;28;81424;-76
2022/05/24 19:27:11;;;;;;;2.55;0.40;;;16.00;93.90;;;;;;4992350;28;81913;-76
2022/05/24 19:29:39;;;;;;;2.00;0.40;;;15.90;94.30;;;;;;4987789;28;81909;-77
2022/05/24 19:32:06;;;;;;;2.20;0.40;;;15.80;94.30;;;;;;4979608;28;81246;-76
2022/05/24 19:34:36;;;;;;;2.78;0.35;;;15.90;94.90;;;;;;4979061;28;81145;-77
2022/05/24 19:37:06;;;;;;;1.13;0.25;;;15.90;94.50;;;;;;4981852;28;81538;-76
2022/05/24 19:42:17;;;;;;;3.55;0.30;;;15.90;94.90;;;;;;4981732;28;81418;-77
2022/05/24 19:44:44;;;;;;;1.60;0.20;;;15.90;94.50;;;;;;4969301;28;81691;-77
2022/05/24 19:47:11;;;;;;;1.10;0.40;;;15.90;94.60;;;;;;4969835;28;81745;-59
2022/05/24 19:49:37;;;;;;;1.13;0.30;;;15.90;94.00;;;;;;4978785;28;81639;-60
2022/05/24 19:52:05;;;;;;;2.42;0.30;;;15.90;94.60;;;;;;4971168;28;81474;-60
2022/05/24 19:54:33;;;;;;;0.80;0.20;;;15.90;95.10;;;;;;4977638;28;82301;-60
2022/05/24 19:56:58;;;;;;;0.93;0.20;;;16.00;94.60;;;;;;4980774;28;81899;-61
2022/05/24 19:59:24;;;;;;;0.65;0.22;;;16.00;94.60;;;;;;4977743;28;83117;-61
2022/05/24 20:01:50;;;;;;;3.92;0.32;;;16.00;94.70;;;;;;4981404;28;81585;-60
2022/05/24 20:04:16;;;;;;;0.90;0.10;;;16.00;95.50;;;;;;4980104;28;81687;-59
2022/05/24 20:06:41;;;;;;;1.42;0.10;;;16.00;95.60;;;;;;4977671;28;81893;-61
2022/05/24 20:09:07;;;;;;;1.45;0.10;;;16.00;95.60;;;;;;4982714;28;82698;-59
2022/05/24 20:11:34;;;;;;;2.28;0.20;;;16.00;95.60;;;;;;4976595;28;81939;-59
2022/05/24 20:14:01;;;;;;;2.83;0.20;;;16.00;95.40;;;;;;4972357;28;82558;-60
2022/05/24 20:16:28;;;;;;;1.63;0.55;;;16.00;95.20;;;;;;4977313;28;81806;-60
2022/05/24 20:18:54;;;;;;;3.40;0.95;;;15.90;95.50;;;;;;4973247;28;81913;-57
2022/05/24 20:21:21;;;;;;;1.50;0.20;;;15.70;94.90;;;;;;4970407;28;81762;-57
2022/05/24 20:23:47;;;;;;;3.28;0.25;;;15.50;95.10;;;;;;4972510;28;81636;-61
2022/05/24 20:26:14;;;;;;;0.90;0.30;;;15.40;95.70;;;;;;4977031;28;81300;-58
2022/05/24 20:28:39;;;;;;;3.92;0.30;;;15.30;96.50;;;;;;4975880;28;83641;-75
2022/05/24 20:31:05;;;;;;;1.75;0.22;;;15.40;96.70;;;;;;4972404;28;81873;-76
2022/05/24 20:33:31;;;;;;;1.60;0.20;;;15.50;96.70;;;;;;4973686;28;81678;-75
2022/05/24 20:35:56;;;;;;;2.05;0.20;;;15.60;97.80;;;;;;4972000;28;81578;-74
2022/05/24 20:38:23;;;;;;;1.65;0.30;;;15.60;97.10;;;;;;4976655;28;81744;-76
2022/05/24 20:40:49;;;;;;;3.22;0.20;;;15.60;97.20;;;;;;4972184;28;81294;-76
2022/05/24 20:43:15;;;;;;;1.75;0.50;;;15.50;98.70;;;;;;4969658;28;81606;-75
2022/05/24 20:45:40;;;;;;;6.13;0.60;;;15.50;98.90;;;;;;4971998;28;81931;-75
2022/05/24 20:48:06;;;;;;;1.92;0.57;;;15.50;99.30;;;;;;4977552;28;82690;-76
2022/05/24 20:50:32;;;;;;;4.05;0.45;;;15.50;99.80;;;;;;4968188;28;81181;-74
2022/05/24 20:52:59;;;;;;;4.43;0.50;;;15.50;99.90;;;;;;4966042;28;81501;-74
2022/05/24 20:55:26;;;;;;;6.05;0.70;;;15.50;99.90;;;;;;4971207;28;81959;-76
2022/05/24 20:57:52;;;;;;;5.93;0.98;;;15.50;99.90;;;;;;4971199;28;81900;-76
2022/05/24 21:00:19;;;;;;;3.15;0.73;;;15.40;99.90;;;;;;4976439;28;81245;-75
2022/05/24 21:03:20;;;;;;;4.40;1.00;;;15.20;99.90;;;;;;4965514;28;81428;-75
2022/05/24 21:05:46;;;;;;;3.75;1.05;;;15.20;99.90;;;;;;4972340;28;81357;-73
2022/05/24 21:08:12;;;;;;;2.67;1.00;;;15.20;99.90;;;;;;4978599;28;81316;-74
2022/05/24 21:10:38;;;;;;;1.45;0.60;;;15.10;99.90;;;;;;4967689;28;82055;-74
2022/05/24 21:13:04;;;;;;;6.47;0.82;;;15.10;99.90;;;;;;4974601;28;81963;-75
2022/05/24 21:15:33;;;;;;;2.28;0.95;;;15.20;99.90;;;;;;4980581;28;81740;-75
2022/05/24 21:18:01;;;;;;;3.10;0.82;;;15.20;99.90;;;;;;4979772;28;82161;-75
2022/05/24 21:20:27;;;;;;;3.38;1.10;;;15.20;99.90;;;;;;4980602;28;81386;-75
2022/05/24 21:22:53;;;;;;;4.57;1.00;;;14.90;99.90;;;;;;4979986;28;81404;-74
2022/05/24 21:28:11;;;;;;;4.15;0.93;;;14.70;99.90;;;;;;4980906;28;82362;-75
2022/05/24 21:30:42;;;;;;;2.67;0.85;;;14.60;99.90;;;;;;4979318;28;82203;-75
2022/05/24 21:33:12;;;;;;;3.75;0.60;;;14.60;99.90;;;;;;4979328;28;81360;-75
2022/05/24 21:35:43;;;;;;;3.05;0.60;;;14.70;99.90;;;;;;4978566;28;81941;-75
2022/05/24 21:38:10;;;;;;;1.75;0.60;;;14.70;99.90;;;;;;4977063;28;81801;-75
2022/05/24 21:40:36;;;;;;;1.85;0.40;;;14.70;99.90;;;;;;4979044;28;81308;-75
2022/05/24 21:43:03;;;;;;;2.10;0.35;;;14.60;99.90;;;;;;4979664;28;81745;-75
2022/05/24 21:45:30;;;;;;;2.22;0.30;;;14.60;99.90;;;;;;4978067;28;83493;-75
2022/05/24 21:47:56;;;;;;;1.75;0.40;;;14.70;99.90;;;;;;4975006;28;83504;-75
2022/05/24 21:50:22;;;;;;;2.25;0.30;;;14.70;99.90;;;;;;4979485;28;81164;-75
2022/05/24 21:52:48;;;;;;;1.30;0.20;;;14.60;99.90;;;;;;4978736;28;81669;-75
2022/05/24 21:55:14;;;;;;;1.52;0.20;;;14.50;99.90;;;;;;4979120;28;81777;-76
2022/05/24 21:57:40;;;;;;;1.92;0.30;;;14.40;99.90;;;;;;4977975;28;81888;-76
